sensor_id;sensor_type;location;lat;lon;timestamp;P1;durP1;ratioP1;P2;durP2;ratioP2
18818;SDS011;9537;45.594;9.294;2024-01-07T00:00:25;40.17;;;23.03;;
18818;SDS011;9537;45.594;9.294;2024-01-07T00:01:27;38.10;;;21.43;;
18818;SDS011;9537;45.594;9.294;2024-01-07T00:02:28;38.87;;;22.60;;
18818;SDS011;9537;45.594;9.294;2024-01-07T00:03:32;41.93;;;23.03;;
18818;SDS011;9537;45.594;9.294;2024-01-07T00:04:33;36.00;;;21.53;;
18818;SDS011;9537;45.594;9.294;2024-01-07T00:05:35;43.40;;;23.37;;
18818;SDS011;9537;45.594;9.294;2024-01-07T00:06:36;40.73;;;21.73;;
18818;SDS011;9537;45.594;9.294;2024-01-07T00:07:38;36.53;;;21.97;;
18818;SDS011;9537;45.594;9.294;2024-01-07T00:08:39;36.43;;;20.93;;
18818;SDS011;9537;45.594;9.294;2024-01-07T00:09:40;38.97;;;22.30;;
18818;SDS011;9537;45.594;9.294;2024-01-07T00:10:41;41.17;;;21.07;;
18818;SDS011;9537;45.594;9.294;2024-01-07T00:11:43;37.57;;;21.77;;
18818;SDS011;9537;45.594;9.294;2024-01-07T00:12:44;34.20;;;20.10;;
18818;SDS011;9537;45.594;9.294;2024-01-07T00:13:46;36.47;;;20.53;;
18818;SDS011;9537;45.594;9.294;2024-01-07T00:14:46;36.57;;;20.70;;
18818;SDS011;9537;45.594;9.294;2024-01-07T00:15:48;37.37;;;20.90;;
18818;SDS011;9537;45.594;9.294;2024-01-07T00:16:49;36.63;;;21.23;;
18818;SDS011;9537;45.594;9.294;2024-01-07T00:17:51;35.47;;;21.47;;
18818;SDS011;9537;45.594;9.294;2024-01-07T00:18:53;34.10;;;19.97;;
18818;SDS011;9537;45.594;9.294;2024-01-07T00:19:55;37.80;;;21.80;;
18818;SDS011;9537;45.594;9.294;2024-01-07T00:20:56;33.50;;;21.30;;
18818;SDS011;9537;45.594;9.294;2024-01-07T00:21:57;36.70;;;21.00;;
18818;SDS011;9537;45.594;9.294;2024-01-07T00:22:58;35.23;;;19.93;;
18818;SDS011;9537;45.594;9.294;2024-01-07T00:23:59;35.07;;;19.73;;
18818;SDS011;9537;45.594;9.294;2024-01-07T00:25:01;35.47;;;20.40;;
18818;SDS011;9537;45.594;9.294;2024-01-07T00:26:01;35.10;;;20.23;;
18818;SDS011;9537;45.594;9.294;2024-01-07T00:27:04;34.70;;;20.50;;
18818;SDS011;9537;45.594;9.294;2024-01-07T00:28:05;36.10;;;20.50;;
18818;SDS011;9537;45.594;9.294;2024-01-07T00:29:07;36.37;;;20.00;;
18818;SDS011;9537;45.594;9.294;2024-01-07T00:30:08;38.03;;;19.97;;
18818;SDS011;9537;45.594;9.294;2024-01-07T00:31:11;31.53;;;18.70;;
18818;SDS011;9537;45.594;9.294;2024-01-07T00:32:12;35.00;;;20.47;;
18818;SDS011;9537;45.594;9.294;2024-01-07T00:33:14;33.93;;;19.10;;
18818;SDS011;9537;45.594;9.294;2024-01-07T00:34:16;31.77;;;19.80;;
18818;SDS011;9537;45.594;9.294;2024-01-07T00:35:18;32.73;;;19.63;;
18818;SDS011;9537;45.594;9.294;2024-01-07T00:36:19;32.97;;;19.53;;
18818;SDS011;9537;45.594;9.294;2024-01-07T00:37:20;34.33;;;20.50;;
18818;SDS011;9537;45.594;9.294;2024-01-07T00:38:21;32.70;;;19.97;;
18818;SDS011;9537;45.594;9.294;2024-01-07T00:39:23;32.03;;;18.70;;
18818;SDS011;9537;45.594;9.294;2024-01-07T00:40:24;37.10;;;21.03;;
18818;SDS011;9537;45.594;9.294;2024-01-07T00:41:26;36.30;;;20.53;;
18818;SDS011;9537;45.594;9.294;2024-01-07T00:42:27;36.00;;;20.67;;
18818;SDS011;9537;45.594;9.294;2024-01-07T00:43:27;35.57;;;21.20;;
18818;SDS011;9537;45.594;9.294;2024-01-07T00:44:29;38.70;;;20.90;;
18818;SDS011;9537;45.594;9.294;2024-01-07T00:45:30;35.83;;;19.80;;
18818;SDS011;9537;45.594;9.294;2024-01-07T00:46:32;35.43;;;20.37;;
18818;SDS011;9537;45.594;9.294;2024-01-07T00:47:32;33.13;;;19.60;;
18818;SDS011;9537;45.594;9.294;2024-01-07T00:48:34;35.00;;;20.60;;
18818;SDS011;9537;45.594;9.294;2024-01-07T00:49:37;39.93;;;21.40;;
18818;SDS011;9537;45.594;9.294;2024-01-07T00:50:40;36.83;;;20.10;;
18818;SDS011;9537;45.594;9.294;2024-01-07T00:51:40;35.37;;;19.53;;
18818;SDS011;9537;45.594;9.294;2024-01-07T00:52:42;34.40;;;19.40;;
18818;SDS011;9537;45.594;9.294;2024-01-07T00:53:43;36.73;;;20.57;;
18818;SDS011;9537;45.594;9.294;2024-01-07T00:54:45;38.57;;;21.70;;
18818;SDS011;9537;45.594;9.294;2024-01-07T00:55:46;36.90;;;20.97;;
18818;SDS011;9537;45.594;9.294;2024-01-07T00:56:47;37.37;;;20.33;;
18818;SDS011;9537;45.594;9.294;2024-01-07T00:57:48;39.30;;;21.00;;
18818;SDS011;9537;45.594;9.294;2024-01-07T00:58:50;36.90;;;21.00;;
18818;SDS011;9537;45.594;9.294;2024-01-07T00:59:51;37.00;;;21.10;;
18818;SDS011;9537;45.594;9.294;2024-01-07T01:00:53;34.60;;;20.83;;
18818;SDS011;9537;45.594;9.294;2024-01-07T01:01:54;37.63;;;20.10;;
18818;SDS011;9537;45.594;9.294;2024-01-07T01:02:54;34.47;;;19.97;;
18818;SDS011;9537;45.594;9.294;2024-01-07T01:03:56;37.30;;;21.57;;
18818;SDS011;9537;45.594;9.294;2024-01-07T01:04:59;35.50;;;20.63;;
18818;SDS011;9537;45.594;9.294;2024-01-07T01:06:01;32.17;;;19.83;;
18818;SDS011;9537;45.594;9.294;2024-01-07T01:07:02;31.13;;;19.33;;
18818;SDS011;9537;45.594;9.294;2024-01-07T01:08:05;32.13;;;19.87;;
18818;SDS011;9537;45.594;9.294;2024-01-07T01:09:05;35.20;;;19.67;;
18818;SDS011;9537;45.594;9.294;2024-01-07T01:10:08;31.87;;;18.57;;
18818;SDS011;9537;45.594;9.294;2024-01-07T01:11:09;31.37;;;17.83;;
18818;SDS011;9537;45.594;9.294;2024-01-07T01:12:11;33.67;;;19.73;;
18818;SDS011;9537;45.594;9.294;2024-01-07T01:13:12;27.77;;;17.33;;
18818;SDS011;9537;45.594;9.294;2024-01-07T01:14:12;31.73;;;19.10;;
18818;SDS011;9537;45.594;9.294;2024-01-07T01:15:14;30.97;;;19.30;;
18818;SDS011;9537;45.594;9.294;2024-01-07T01:16:16;28.53;;;17.70;;
18818;SDS011;9537;45.594;9.294;2024-01-07T01:17:18;32.83;;;19.00;;
18818;SDS011;9537;45.594;9.294;2024-01-07T01:18:19;34.97;;;18.53;;
18818;SDS011;9537;45.594;9.294;2024-01-07T01:19:20;30.00;;;18.00;;
18818;SDS011;9537;45.594;9.294;2024-01-07T01:20:23;27.73;;;18.13;;
18818;SDS011;9537;45.594;9.294;2024-01-07T01:21:24;29.90;;;17.77;;
18818;SDS011;9537;45.594;9.294;2024-01-07T01:22:25;28.97;;;17.83;;
18818;SDS011;9537;45.594;9.294;2024-01-07T01:23:27;31.20;;;18.17;;
18818;SDS011;9537;45.594;9.294;2024-01-07T01:24:28;29.43;;;18.80;;
18818;SDS011;9537;45.594;9.294;2024-01-07T01:25:28;32.27;;;19.07;;
18818;SDS011;9537;45.594;9.294;2024-01-07T01:26:30;29.70;;;18.73;;
18818;SDS011;9537;45.594;9.294;2024-01-07T01:27:31;35.07;;;19.20;;
18818;SDS011;9537;45.594;9.294;2024-01-07T01:28:33;30.03;;;17.50;;
18818;SDS011;9537;45.594;9.294;2024-01-07T01:29:33;30.83;;;18.77;;
18818;SDS011;9537;45.594;9.294;2024-01-07T01:30:35;28.97;;;17.77;;
18818;SDS011;9537;45.594;9.294;2024-01-07T01:31:36;31.20;;;18.50;;
18818;SDS011;9537;45.594;9.294;2024-01-07T01:32:38;30.27;;;19.17;;
18818;SDS011;9537;45.594;9.294;2024-01-07T01:33:38;31.63;;;19.13;;
18818;SDS011;9537;45.594;9.294;2024-01-07T01:34:39;31.63;;;18.20;;
18818;SDS011;9537;45.594;9.294;2024-01-07T01:35:43;31.93;;;18.83;;
18818;SDS011;9537;45.594;9.294;2024-01-07T01:36:43;32.20;;;18.57;;
18818;SDS011;9537;45.594;9.294;2024-01-07T01:37:45;32.60;;;19.17;;
18818;SDS011;9537;45.594;9.294;2024-01-07T01:38:46;35.03;;;19.27;;
18818;SDS011;9537;45.594;9.294;2024-01-07T01:39:48;30.50;;;19.47;;
18818;SDS011;9537;45.594;9.294;2024-01-07T01:40:51;32.10;;;18.43;;
18818;SDS011;9537;45.594;9.294;2024-01-07T01:41:53;35.53;;;19.63;;
18818;SDS011;9537;45.594;9.294;2024-01-07T01:42:54;33.00;;;20.07;;
18818;SDS011;9537;45.594;9.294;2024-01-07T01:43:56;32.67;;;19.43;;
18818;SDS011;9537;45.594;9.294;2024-01-07T01:44:58;29.70;;;17.50;;
18818;SDS011;9537;45.594;9.294;2024-01-07T01:46:01;35.13;;;19.13;;
18818;SDS011;9537;45.594;9.294;2024-01-07T01:47:03;33.00;;;19.17;;
18818;SDS011;9537;45.594;9.294;2024-01-07T01:48:07;30.43;;;17.70;;
18818;SDS011;9537;45.594;9.294;2024-01-07T01:49:08;31.93;;;18.73;;
18818;SDS011;9537;45.594;9.294;2024-01-07T01:50:10;34.37;;;20.20;;
18818;SDS011;9537;45.594;9.294;2024-01-07T01:51:13;31.97;;;17.90;;
18818;SDS011;9537;45.594;9.294;2024-01-07T01:52:15;35.33;;;19.80;;
18818;SDS011;9537;45.594;9.294;2024-01-07T01:53:15;30.47;;;18.60;;
18818;SDS011;9537;45.594;9.294;2024-01-07T01:54:17;33.07;;;19.77;;
18818;SDS011;9537;45.594;9.294;2024-01-07T01:55:18;32.37;;;18.63;;
18818;SDS011;9537;45.594;9.294;2024-01-07T01:56:21;34.47;;;19.53;;
18818;SDS011;9537;45.594;9.294;2024-01-07T01:57:23;34.50;;;20.20;;
18818;SDS011;9537;45.594;9.294;2024-01-07T01:58:29;32.50;;;17.80;;
18818;SDS011;9537;45.594;9.294;2024-01-07T01:59:32;36.40;;;20.50;;
18818;SDS011;9537;45.594;9.294;2024-01-07T02:00:35;36.63;;;20.53;;
18818;SDS011;9537;45.594;9.294;2024-01-07T02:01:36;38.67;;;19.37;;
18818;SDS011;9537;45.594;9.294;2024-01-07T02:02:38;31.80;;;18.80;;
18818;SDS011;9537;45.594;9.294;2024-01-07T02:03:38;33.37;;;17.60;;
18818;SDS011;9537;45.594;9.294;2024-01-07T02:04:40;37.63;;;19.83;;
18818;SDS011;9537;45.594;9.294;2024-01-07T02:05:41;33.77;;;19.27;;
18818;SDS011;9537;45.594;9.294;2024-01-07T02:06:46;40.20;;;21.20;;
18818;SDS011;9537;45.594;9.294;2024-01-07T02:07:47;36.80;;;19.97;;
18818;SDS011;9537;45.594;9.294;2024-01-07T02:08:49;30.83;;;18.43;;
18818;SDS011;9537;45.594;9.294;2024-01-07T02:09:50;37.47;;;19.67;;
18818;SDS011;9537;45.594;9.294;2024-01-07T02:10:52;40.37;;;21.33;;
18818;SDS011;9537;45.594;9.294;2024-01-07T02:12:02;35.03;;;20.40;;
18818;SDS011;9537;45.594;9.294;2024-01-07T02:13:05;33.73;;;19.30;;
18818;SDS011;9537;45.594;9.294;2024-01-07T02:14:06;30.30;;;18.47;;
18818;SDS011;9537;45.594;9.294;2024-01-07T02:15:08;34.20;;;18.60;;
18818;SDS011;9537;45.594;9.294;2024-01-07T02:16:09;36.77;;;19.13;;
18818;SDS011;9537;45.594;9.294;2024-01-07T02:17:10;35.10;;;21.43;;
18818;SDS011;9537;45.594;9.294;2024-01-07T02:18:11;32.53;;;19.67;;
18818;SDS011;9537;45.594;9.294;2024-01-07T02:19:12;34.13;;;21.07;;
18818;SDS011;9537;45.594;9.294;2024-01-07T02:20:14;35.43;;;21.30;;
18818;SDS011;9537;45.594;9.294;2024-01-07T02:21:15;36.63;;;20.57;;
18818;SDS011;9537;45.594;9.294;2024-01-07T02:22:18;38.27;;;21.07;;
18818;SDS011;9537;45.594;9.294;2024-01-07T02:23:19;30.73;;;19.10;;
18818;SDS011;9537;45.594;9.294;2024-01-07T02:24:22;41.07;;;20.90;;
18818;SDS011;9537;45.594;9.294;2024-01-07T02:25:23;36.70;;;19.83;;
18818;SDS011;9537;45.594;9.294;2024-01-07T02:26:25;36.90;;;20.33;;
18818;SDS011;9537;45.594;9.294;2024-01-07T02:27:25;37.60;;;20.77;;
18818;SDS011;9537;45.594;9.294;2024-01-07T02:28:28;36.40;;;20.23;;
18818;SDS011;9537;45.594;9.294;2024-01-07T02:29:29;38.97;;;21.90;;
18818;SDS011;9537;45.594;9.294;2024-01-07T02:30:29;37.37;;;21.47;;
18818;SDS011;9537;45.594;9.294;2024-01-07T02:31:31;37.37;;;20.17;;
18818;SDS011;9537;45.594;9.294;2024-01-07T02:32:32;34.70;;;19.90;;
18818;SDS011;9537;45.594;9.294;2024-01-07T02:33:35;37.20;;;20.40;;
18818;SDS011;9537;45.594;9.294;2024-01-07T02:34:36;36.43;;;20.30;;
18818;SDS011;9537;45.594;9.294;2024-01-07T02:35:37;36.33;;;20.53;;
18818;SDS011;9537;45.594;9.294;2024-01-07T02:36:38;37.63;;;20.87;;
18818;SDS011;9537;45.594;9.294;2024-01-07T02:37:40;37.83;;;20.40;;
18818;SDS011;9537;45.594;9.294;2024-01-07T02:38:41;38.87;;;20.40;;
18818;SDS011;9537;45.594;9.294;2024-01-07T02:39:44;40.37;;;20.97;;
18818;SDS011;9537;45.594;9.294;2024-01-07T02:40:45;37.70;;;21.50;;
18818;SDS011;9537;45.594;9.294;2024-01-07T02:41:45;39.50;;;21.33;;
18818;SDS011;9537;45.594;9.294;2024-01-07T02:42:47;39.97;;;21.67;;
18818;SDS011;9537;45.594;9.294;2024-01-07T02:43:48;41.50;;;21.30;;
18818;SDS011;9537;45.594;9.294;2024-01-07T02:44:50;40.57;;;22.47;;
18818;SDS011;9537;45.594;9.294;2024-01-07T02:45:50;42.40;;;22.07;;
18818;SDS011;9537;45.594;9.294;2024-01-07T02:46:52;45.10;;;21.70;;
18818;SDS011;9537;45.594;9.294;2024-01-07T02:47:53;40.23;;;21.93;;
18818;SDS011;9537;45.594;9.294;2024-01-07T02:48:55;38.33;;;21.17;;
18818;SDS011;9537;45.594;9.294;2024-01-07T02:49:56;45.83;;;23.70;;
18818;SDS011;9537;45.594;9.294;2024-01-07T02:50:57;41.13;;;21.53;;
18818;SDS011;9537;45.594;9.294;2024-01-07T02:51:58;42.40;;;22.13;;
18818;SDS011;9537;45.594;9.294;2024-01-07T02:52:59;36.90;;;20.50;;
18818;SDS011;9537;45.594;9.294;2024-01-07T02:54:01;40.37;;;21.07;;
18818;SDS011;9537;45.594;9.294;2024-01-07T02:55:04;40.17;;;22.20;;
18818;SDS011;9537;45.594;9.294;2024-01-07T02:56:05;41.47;;;21.90;;
18818;SDS011;9537;45.594;9.294;2024-01-07T02:57:08;41.23;;;20.00;;
18818;SDS011;9537;45.594;9.294;2024-01-07T02:58:09;42.33;;;22.03;;
18818;SDS011;9537;45.594;9.294;2024-01-07T02:59:11;39.60;;;21.00;;
18818;SDS011;9537;45.594;9.294;2024-01-07T03:00:12;38.07;;;20.47;;
18818;SDS011;9537;45.594;9.294;2024-01-07T03:01:14;37.10;;;20.47;;
18818;SDS011;9537;45.594;9.294;2024-01-07T03:02:15;38.40;;;20.63;;
18818;SDS011;9537;45.594;9.294;2024-01-07T03:03:15;40.17;;;20.67;;
18818;SDS011;9537;45.594;9.294;2024-01-07T03:04:17;41.97;;;21.10;;
18818;SDS011;9537;45.594;9.294;2024-01-07T03:05:18;41.23;;;22.00;;
18818;SDS011;9537;45.594;9.294;2024-01-07T03:06:20;37.13;;;20.43;;
18818;SDS011;9537;45.594;9.294;2024-01-07T03:07:21;40.23;;;22.00;;
18818;SDS011;9537;45.594;9.294;2024-01-07T03:08:23;36.63;;;21.40;;
18818;SDS011;9537;45.594;9.294;2024-01-07T03:09:24;38.07;;;20.03;;
18818;SDS011;9537;45.594;9.294;2024-01-07T03:10:27;36.83;;;21.00;;
18818;SDS011;9537;45.594;9.294;2024-01-07T03:11:28;38.47;;;20.80;;
18818;SDS011;9537;45.594;9.294;2024-01-07T03:12:29;36.70;;;19.97;;
18818;SDS011;9537;45.594;9.294;2024-01-07T03:13:31;36.70;;;19.87;;
18818;SDS011;9537;45.594;9.294;2024-01-07T03:14:32;38.80;;;20.10;;
18818;SDS011;9537;45.594;9.294;2024-01-07T03:15:34;38.10;;;20.67;;
18818;SDS011;9537;45.594;9.294;2024-01-07T03:16:35;38.03;;;20.57;;
18818;SDS011;9537;45.594;9.294;2024-01-07T03:17:36;36.13;;;20.30;;
18818;SDS011;9537;45.594;9.294;2024-01-07T03:18:37;39.17;;;21.00;;
18818;SDS011;9537;45.594;9.294;2024-01-07T03:19:39;38.47;;;20.87;;
18818;SDS011;9537;45.594;9.294;2024-01-07T03:20:40;38.00;;;20.20;;
18818;SDS011;9537;45.594;9.294;2024-01-07T03:21:42;35.43;;;19.90;;
18818;SDS011;9537;45.594;9.294;2024-01-07T03:22:43;35.23;;;20.53;;
18818;SDS011;9537;45.594;9.294;2024-01-07T03:23:44;35.10;;;18.93;;
18818;SDS011;9537;45.594;9.294;2024-01-07T03:24:45;42.00;;;21.90;;
18818;SDS011;9537;45.594;9.294;2024-01-07T03:25:48;37.10;;;21.47;;
18818;SDS011;9537;45.594;9.294;2024-01-07T03:26:49;35.33;;;20.10;;
18818;SDS011;9537;45.594;9.294;2024-01-07T03:27:50;35.03;;;19.87;;
18818;SDS011;9537;45.594;9.294;2024-01-07T03:28:52;31.47;;;18.77;;
18818;SDS011;9537;45.594;9.294;2024-01-07T03:29:53;35.17;;;21.07;;
18818;SDS011;9537;45.594;9.294;2024-01-07T03:30:54;34.47;;;19.43;;
18818;SDS011;9537;45.594;9.294;2024-01-07T03:31:55;37.27;;;20.17;;
18818;SDS011;9537;45.594;9.294;2024-01-07T03:32:57;33.53;;;19.27;;
18818;SDS011;9537;45.594;9.294;2024-01-07T03:33:58;33.57;;;19.63;;
18818;SDS011;9537;45.594;9.294;2024-01-07T03:34:59;35.80;;;20.17;;
18818;SDS011;9537;45.594;9.294;2024-01-07T03:36:06;37.23;;;20.90;;
18818;SDS011;9537;45.594;9.294;2024-01-07T03:37:08;36.10;;;20.10;;
18818;SDS011;9537;45.594;9.294;2024-01-07T03:38:08;37.20;;;19.60;;
18818;SDS011;9537;45.594;9.294;2024-01-07T03:39:10;34.77;;;20.20;;
18818;SDS011;9537;45.594;9.294;2024-01-07T03:40:11;39.37;;;19.97;;
18818;SDS011;9537;45.594;9.294;2024-01-07T03:41:16;36.40;;;19.60;;
18818;SDS011;9537;45.594;9.294;2024-01-07T03:42:19;35.13;;;19.47;;
18818;SDS011;9537;45.594;9.294;2024-01-07T03:43:20;35.77;;;19.80;;
18818;SDS011;9537;45.594;9.294;2024-01-07T03:44:22;35.97;;;20.50;;
18818;SDS011;9537;45.594;9.294;2024-01-07T03:45:23;39.63;;;21.20;;
18818;SDS011;9537;45.594;9.294;2024-01-07T03:46:23;37.10;;;21.23;;
18818;SDS011;9537;45.594;9.294;2024-01-07T03:47:25;39.67;;;20.73;;
18818;SDS011;9537;45.594;9.294;2024-01-07T03:48:26;37.50;;;19.93;;
18818;SDS011;9537;45.594;9.294;2024-01-07T03:49:28;33.70;;;19.17;;
18818;SDS011;9537;45.594;9.294;2024-01-07T03:50:28;38.97;;;21.77;;
18818;SDS011;9537;45.594;9.294;2024-01-07T03:51:29;38.00;;;21.30;;
18818;SDS011;9537;45.594;9.294;2024-01-07T03:52:31;37.17;;;22.03;;
18818;SDS011;9537;45.594;9.294;2024-01-07T03:53:33;36.17;;;20.77;;
18818;SDS011;9537;45.594;9.294;2024-01-07T03:54:34;41.70;;;20.90;;
18818;SDS011;9537;45.594;9.294;2024-01-07T03:55:35;41.63;;;21.47;;
18818;SDS011;9537;45.594;9.294;2024-01-07T03:56:38;45.63;;;21.53;;
18818;SDS011;9537;45.594;9.294;2024-01-07T03:57:40;41.50;;;20.77;;
18818;SDS011;9537;45.594;9.294;2024-01-07T03:58:40;36.27;;;20.77;;
18818;SDS011;9537;45.594;9.294;2024-01-07T03:59:42;36.27;;;20.47;;
18818;SDS011;9537;45.594;9.294;2024-01-07T04:00:43;41.20;;;19.77;;
18818;SDS011;9537;45.594;9.294;2024-01-07T04:01:45;38.67;;;20.50;;
18818;SDS011;9537;45.594;9.294;2024-01-07T04:02:46;35.77;;;20.63;;
18818;SDS011;9537;45.594;9.294;2024-01-07T04:03:47;36.77;;;21.70;;
18818;SDS011;9537;45.594;9.294;2024-01-07T04:04:48;34.47;;;20.37;;
18818;SDS011;9537;45.594;9.294;2024-01-07T04:05:50;35.00;;;20.57;;
18818;SDS011;9537;45.594;9.294;2024-01-07T04:06:51;35.40;;;19.67;;
18818;SDS011;9537;45.594;9.294;2024-01-07T04:07:52;40.57;;;22.03;;
18818;SDS011;9537;45.594;9.294;2024-01-07T04:08:53;41.13;;;21.90;;
18818;SDS011;9537;45.594;9.294;2024-01-07T04:09:55;35.70;;;20.23;;
18818;SDS011;9537;45.594;9.294;2024-01-07T04:10:55;34.50;;;20.47;;
18818;SDS011;9537;45.594;9.294;2024-01-07T04:11:58;35.63;;;20.20;;
18818;SDS011;9537;45.594;9.294;2024-01-07T04:13:01;35.20;;;20.40;;
18818;SDS011;9537;45.594;9.294;2024-01-07T04:14:01;37.07;;;20.77;;
18818;SDS011;9537;45.594;9.294;2024-01-07T04:15:04;39.77;;;21.13;;
18818;SDS011;9537;45.594;9.294;2024-01-07T04:16:05;37.17;;;20.90;;
18818;SDS011;9537;45.594;9.294;2024-01-07T04:17:07;39.07;;;22.37;;
18818;SDS011;9537;45.594;9.294;2024-01-07T04:18:08;39.80;;;21.77;;
18818;SDS011;9537;45.594;9.294;2024-01-07T04:19:10;39.80;;;21.87;;
18818;SDS011;9537;45.594;9.294;2024-01-07T04:20:12;38.30;;;21.27;;
18818;SDS011;9537;45.594;9.294;2024-01-07T04:21:13;36.93;;;20.40;;
18818;SDS011;9537;45.594;9.294;2024-01-07T04:22:15;36.70;;;20.07;;
18818;SDS011;9537;45.594;9.294;2024-01-07T04:23:16;37.43;;;20.50;;
18818;SDS011;9537;45.594;9.294;2024-01-07T04:24:18;37.33;;;20.33;;
18818;SDS011;9537;45.594;9.294;2024-01-07T04:25:18;37.30;;;21.07;;
18818;SDS011;9537;45.594;9.294;2024-01-07T04:26:20;37.33;;;21.17;;
18818;SDS011;9537;45.594;9.294;2024-01-07T04:27:23;35.33;;;20.77;;
18818;SDS011;9537;45.594;9.294;2024-01-07T04:28:25;39.70;;;20.83;;
18818;SDS011;9537;45.594;9.294;2024-01-07T04:29:25;35.23;;;21.67;;
18818;SDS011;9537;45.594;9.294;2024-01-07T04:30:27;39.40;;;21.20;;
18818;SDS011;9537;45.594;9.294;2024-01-07T04:31:28;35.33;;;21.17;;
18818;SDS011;9537;45.594;9.294;2024-01-07T04:32:30;38.63;;;20.27;;
18818;SDS011;9537;45.594;9.294;2024-01-07T04:33:30;33.57;;;19.13;;
18818;SDS011;9537;45.594;9.294;2024-01-07T04:34:32;40.87;;;21.27;;
18818;SDS011;9537;45.594;9.294;2024-01-07T04:35:33;36.53;;;20.73;;
18818;SDS011;9537;45.594;9.294;2024-01-07T04:36:35;35.17;;;21.07;;
18818;SDS011;9537;45.594;9.294;2024-01-07T04:37:37;36.73;;;21.37;;
18818;SDS011;9537;45.594;9.294;2024-01-07T04:38:38;34.63;;;19.90;;
18818;SDS011;9537;45.594;9.294;2024-01-07T04:39:40;37.93;;;21.83;;
18818;SDS011;9537;45.594;9.294;2024-01-07T04:40:41;34.63;;;19.37;;
18818;SDS011;9537;45.594;9.294;2024-01-07T04:41:43;36.77;;;20.20;;
18818;SDS011;9537;45.594;9.294;2024-01-07T04:42:45;37.37;;;21.47;;
18818;SDS011;9537;45.594;9.294;2024-01-07T04:43:47;34.83;;;20.20;;
18818;SDS011;9537;45.594;9.294;2024-01-07T04:44:47;35.60;;;19.80;;
18818;SDS011;9537;45.594;9.294;2024-01-07T04:45:48;33.33;;;20.23;;
18818;SDS011;9537;45.594;9.294;2024-01-07T04:46:50;35.37;;;19.07;;
18818;SDS011;9537;45.594;9.294;2024-01-07T04:47:51;37.17;;;20.43;;
18818;SDS011;9537;45.594;9.294;2024-01-07T04:48:52;37.03;;;21.27;;
18818;SDS011;9537;45.594;9.294;2024-01-07T04:49:53;31.23;;;19.00;;
18818;SDS011;9537;45.594;9.294;2024-01-07T04:50:54;33.13;;;19.53;;
18818;SDS011;9537;45.594;9.294;2024-01-07T04:51:56;32.67;;;19.63;;
18818;SDS011;9537;45.594;9.294;2024-01-07T04:52:56;30.63;;;18.90;;
18818;SDS011;9537;45.594;9.294;2024-01-07T04:53:58;30.33;;;19.10;;
18818;SDS011;9537;45.594;9.294;2024-01-07T04:54:59;32.83;;;18.80;;
18818;SDS011;9537;45.594;9.294;2024-01-07T04:56:01;33.10;;;19.47;;
18818;SDS011;9537;45.594;9.294;2024-01-07T04:57:03;35.23;;;19.57;;
18818;SDS011;9537;45.594;9.294;2024-01-07T04:58:06;38.17;;;20.40;;
18818;SDS011;9537;45.594;9.294;2024-01-07T04:59:07;37.20;;;20.27;;
18818;SDS011;9537;45.594;9.294;2024-01-07T05:00:09;31.07;;;18.63;;
18818;SDS011;9537;45.594;9.294;2024-01-07T05:01:10;33.10;;;19.43;;
18818;SDS011;9537;45.594;9.294;2024-01-07T05:02:12;31.50;;;19.07;;
18818;SDS011;9537;45.594;9.294;2024-01-07T05:03:13;29.60;;;18.50;;
18818;SDS011;9537;45.594;9.294;2024-01-07T05:04:18;30.10;;;18.27;;
18818;SDS011;9537;45.594;9.294;2024-01-07T05:05:18;32.30;;;18.80;;
18818;SDS011;9537;45.594;9.294;2024-01-07T05:06:20;28.13;;;18.47;;
18818;SDS011;9537;45.594;9.294;2024-01-07T05:07:21;30.93;;;18.13;;
18818;SDS011;9537;45.594;9.294;2024-01-07T05:08:23;32.53;;;18.13;;
18818;SDS011;9537;45.594;9.294;2024-01-07T05:09:24;30.13;;;17.83;;
18818;SDS011;9537;45.594;9.294;2024-01-07T05:10:25;30.43;;;18.73;;
18818;SDS011;9537;45.594;9.294;2024-01-07T05:11:26;30.67;;;19.00;;
18818;SDS011;9537;45.594;9.294;2024-01-07T05:12:28;30.97;;;18.70;;
18818;SDS011;9537;45.594;9.294;2024-01-07T05:13:30;32.33;;;18.87;;
18818;SDS011;9537;45.594;9.294;2024-01-07T05:14:32;31.97;;;18.17;;
18818;SDS011;9537;45.594;9.294;2024-01-07T05:15:33;33.50;;;18.63;;
18818;SDS011;9537;45.594;9.294;2024-01-07T05:16:35;31.93;;;18.83;;
18818;SDS011;9537;45.594;9.294;2024-01-07T05:17:35;32.03;;;19.17;;
18818;SDS011;9537;45.594;9.294;2024-01-07T05:18:37;30.83;;;18.50;;
18818;SDS011;9537;45.594;9.294;2024-01-07T05:19:39;31.13;;;17.87;;
18818;SDS011;9537;45.594;9.294;2024-01-07T05:20:41;30.43;;;18.57;;
18818;SDS011;9537;45.594;9.294;2024-01-07T05:21:42;30.43;;;18.20;;
18818;SDS011;9537;45.594;9.294;2024-01-07T05:22:44;33.97;;;19.70;;
18818;SDS011;9537;45.594;9.294;2024-01-07T05:23:45;30.27;;;18.27;;
18818;SDS011;9537;45.594;9.294;2024-01-07T05:24:46;32.83;;;18.83;;
18818;SDS011;9537;45.594;9.294;2024-01-07T05:25:47;30.23;;;18.63;;
18818;SDS011;9537;45.594;9.294;2024-01-07T05:26:49;31.13;;;18.70;;
18818;SDS011;9537;45.594;9.294;2024-01-07T05:27:49;29.97;;;18.03;;
18818;SDS011;9537;45.594;9.294;2024-01-07T05:28:54;30.53;;;18.63;;
18818;SDS011;9537;45.594;9.294;2024-01-07T05:29:55;30.47;;;18.10;;
18818;SDS011;9537;45.594;9.294;2024-01-07T05:30:57;28.63;;;17.80;;
18818;SDS011;9537;45.594;9.294;2024-01-07T05:31:57;30.30;;;19.00;;
18818;SDS011;9537;45.594;9.294;2024-01-07T05:33:00;29.43;;;17.30;;
18818;SDS011;9537;45.594;9.294;2024-01-07T05:34:02;30.37;;;17.57;;
18818;SDS011;9537;45.594;9.294;2024-01-07T05:35:03;31.77;;;17.93;;
18818;SDS011;9537;45.594;9.294;2024-01-07T05:36:06;32.87;;;18.23;;
18818;SDS011;9537;45.594;9.294;2024-01-07T05:37:06;31.97;;;17.77;;
18818;SDS011;9537;45.594;9.294;2024-01-07T05:38:08;31.10;;;17.57;;
18818;SDS011;9537;45.594;9.294;2024-01-07T05:39:09;29.73;;;18.37;;
18818;SDS011;9537;45.594;9.294;2024-01-07T05:40:11;29.07;;;17.17;;
18818;SDS011;9537;45.594;9.294;2024-01-07T05:41:12;26.63;;;16.53;;
18818;SDS011;9537;45.594;9.294;2024-01-07T05:42:14;30.47;;;17.87;;
18818;SDS011;9537;45.594;9.294;2024-01-07T05:43:14;25.17;;;16.30;;
18818;SDS011;9537;45.594;9.294;2024-01-07T05:44:18;26.13;;;16.33;;
18818;SDS011;9537;45.594;9.294;2024-01-07T05:45:18;29.63;;;17.63;;
18818;SDS011;9537;45.594;9.294;2024-01-07T05:46:20;26.00;;;16.77;;
18818;SDS011;9537;45.594;9.294;2024-01-07T05:47:21;28.87;;;17.50;;
18818;SDS011;9537;45.594;9.294;2024-01-07T05:48:22;26.87;;;16.13;;
18818;SDS011;9537;45.594;9.294;2024-01-07T05:49:23;30.87;;;17.90;;
18818;SDS011;9537;45.594;9.294;2024-01-07T05:50:25;26.93;;;16.47;;
18818;SDS011;9537;45.594;9.294;2024-01-07T05:51:26;32.17;;;17.70;;
18818;SDS011;9537;45.594;9.294;2024-01-07T05:52:28;27.80;;;16.60;;
18818;SDS011;9537;45.594;9.294;2024-01-07T05:53:28;28.60;;;16.93;;
18818;SDS011;9537;45.594;9.294;2024-01-07T05:54:30;29.67;;;17.10;;
18818;SDS011;9537;45.594;9.294;2024-01-07T05:55:31;31.00;;;18.30;;
18818;SDS011;9537;45.594;9.294;2024-01-07T05:56:37;28.27;;;17.40;;
18818;SDS011;9537;45.594;9.294;2024-01-07T05:57:39;32.80;;;19.00;;
18818;SDS011;9537;45.594;9.294;2024-01-07T05:58:41;31.07;;;18.33;;
18818;SDS011;9537;45.594;9.294;2024-01-07T05:59:44;30.33;;;18.20;;
18818;SDS011;9537;45.594;9.294;2024-01-07T06:00:46;33.50;;;18.63;;
18818;SDS011;9537;45.594;9.294;2024-01-07T06:01:47;32.27;;;18.50;;
18818;SDS011;9537;45.594;9.294;2024-01-07T06:02:49;33.87;;;18.93;;
18818;SDS011;9537;45.594;9.294;2024-01-07T06:03:49;31.70;;;18.63;;
18818;SDS011;9537;45.594;9.294;2024-01-07T06:04:52;32.97;;;18.37;;